createdAt,value
2019-05-18T00:01:44.999Z,9.73
2019-05-18T00:04:13.060Z,9.66
2019-05-18T00:06:40.213Z,9.48
2019-05-18T00:09:07.325Z,9.32
2019-05-18T00:11:34.275Z,9.21
2019-05-18T00:14:01.218Z,9.12
2019-05-18T00:16:28.361Z,9.05
2019-05-18T00:18:55.343Z,9.02
2019-05-18T00:21:22.298Z,9.03
2019-05-18T00:23:56.692Z,8.97
2019-05-18T00:26:23.637Z,8.94
2019-05-18T00:28:50.610Z,8.91
2019-05-18T00:31:17.596Z,8.83
2019-05-18T00:33:44.577Z,8.62
2019-05-18T00:36:11.523Z,8.47
2019-05-18T00:38:38.467Z,8.45
2019-05-18T00:41:05.444Z,8.43
2019-05-18T00:43:32.398Z,8.43
2019-05-18T00:45:59.462Z,8.44
2019-05-18T00:48:26.478Z,8.41
2019-05-18T00:50:53.430Z,8.39
2019-05-18T00:53:20.363Z,8.41
2019-05-18T00:55:47.368Z,8.39
2019-05-18T00:58:14.367Z,8.37
2019-05-18T01:00:41.545Z,8.23
2019-05-18T01:03:08.538Z,8.19
2019-05-18T01:05:38.036Z,8.20
2019-05-18T01:08:04.387Z,8.20
2019-05-18T01:10:33.162Z,8.25
2019-05-18T01:13:00.150Z,8.33
2019-05-18T01:15:27.086Z,8.38
2019-05-18T01:17:57.235Z,8.29
2019-05-18T01:20:23.393Z,8.21
2019-05-18T01:22:50.352Z,8.20
2019-05-18T01:25:17.612Z,8.19
2019-05-18T01:27:44.547Z,8.17
2019-05-18T01:30:12.318Z,8.18
2019-05-18T01:32:39.300Z,8.20
2019-05-18T01:35:15.543Z,8.19
2019-05-18T01:37:42.711Z,8.17
2019-05-18T01:40:09.744Z,8.15
2019-05-18T01:42:36.815Z,8.18
2019-05-18T01:45:16.230Z,8.15
2019-05-18T01:47:34.004Z,8.14
2019-05-18T01:50:00.956Z,8.14
2019-05-18T01:52:27.957Z,8.09
2019-05-18T01:54:54.918Z,8.08
2019-05-18T01:57:22.005Z,8.11
2019-05-18T01:59:49.003Z,8.12
2019-05-18T02:02:15.963Z,8.13
2019-05-18T02:04:42.911Z,8.12
2019-05-18T02:07:09.911Z,8.08
2019-05-18T02:09:36.850Z,8.06
2019-05-18T02:12:03.890Z,7.97
2019-05-18T02:14:30.871Z,7.91
2019-05-18T02:16:57.814Z,7.90
2019-05-18T02:19:26.628Z,7.85
2019-05-18T02:21:53.609Z,7.78
2019-05-18T02:24:20.882Z,7.68
2019-05-18T02:26:47.923Z,7.60
2019-05-18T02:29:14.936Z,7.58
2019-05-18T02:31:41.887Z,7.57
2019-05-18T02:34:08.847Z,7.54
2019-05-18T02:36:35.846Z,7.52
2019-05-18T02:39:04.778Z,7.51
2019-05-18T02:41:31.759Z,7.41
2019-05-18T02:43:58.711Z,7.17
2019-05-18T02:46:25.697Z,7.14
2019-05-18T02:48:52.648Z,7.16
2019-05-18T02:51:19.716Z,7.18
2019-05-18T02:53:46.704Z,7.18
2019-05-18T02:56:13.664Z,7.17
2019-05-18T02:58:42.444Z,7.16
2019-05-18T03:01:09.400Z,7.13
2019-05-18T03:03:36.330Z,7.00
2019-05-18T03:06:03.722Z,6.95
2019-05-18T03:08:30.794Z,6.98
2019-05-18T03:10:57.732Z,7.09
2019-05-18T03:13:24.722Z,7.11
2019-05-18T03:15:51.655Z,7.14
2019-05-18T03:18:18.611Z,7.21
2019-05-18T03:20:45.608Z,7.29
2019-05-18T03:23:12.533Z,7.40
2019-05-18T03:25:39.502Z,7.46
2019-05-18T03:28:06.471Z,7.49
2019-05-18T03:30:33.525Z,7.54
2019-05-18T03:33:01.493Z,7.58
2019-05-18T03:35:28.491Z,7.60
2019-05-18T03:37:57.878Z,7.61
2019-05-18T03:40:24.874Z,7.68
2019-05-18T03:42:51.808Z,7.74
2019-05-18T03:45:18.752Z,7.73
2019-05-18T03:47:45.722Z,7.73
2019-05-18T03:50:12.710Z,7.75
2019-05-18T03:52:39.663Z,7.76
2019-05-18T03:55:06.745Z,7.76
2019-05-18T03:57:33.748Z,7.78
2019-05-18T04:00:00.735Z,7.79
2019-05-18T04:02:27.662Z,7.79
2019-05-18T04:04:54.671Z,7.83
2019-05-18T04:07:21.605Z,7.87
2019-05-18T04:09:48.560Z,7.93
2019-05-18T04:12:15.555Z,8.00
2019-05-18T04:14:42.701Z,8.04
2019-05-18T04:17:09.797Z,7.94
2019-05-18T04:19:46.097Z,7.98
2019-05-18T04:22:05.626Z,8.08
2019-05-18T04:24:32.676Z,8.21
2019-05-18T04:27:00.750Z,8.28
2019-05-18T04:29:27.725Z,8.33
2019-05-18T04:31:54.692Z,8.36
2019-05-18T04:34:21.777Z,8.34
2019-05-18T04:36:50.534Z,8.24
2019-05-18T04:39:17.488Z,8.19
2019-05-18T04:41:44.436Z,8.20
2019-05-18T04:44:17.925Z,8.20
2019-05-18T04:46:44.869Z,8.19
2019-05-18T04:49:11.809Z,8.16
2019-05-18T04:51:38.794Z,8.19
2019-05-18T04:54:05.790Z,8.21
2019-05-18T04:56:32.804Z,8.23
2019-05-18T04:58:59.780Z,8.27
2019-05-18T05:01:26.913Z,8.30
2019-05-18T05:03:53.841Z,8.33
2019-05-18T05:06:27.083Z,8.39
2019-05-18T05:08:54.065Z,8.46
2019-05-18T05:11:21.040Z,8.57
2019-05-18T05:13:47.997Z,8.70
2019-05-18T05:16:34.403Z,8.85
2019-05-18T05:19:01.356Z,8.95
2019-05-18T05:21:28.780Z,9.05
2019-05-18T05:23:55.758Z,9.15
2019-05-18T05:26:22.705Z,9.22
2019-05-18T05:28:49.661Z,9.29
2019-05-18T05:31:16.727Z,9.35
2019-05-18T05:33:43.696Z,9.41
2019-05-18T05:36:10.648Z,9.46
2019-05-18T05:38:37.644Z,9.53
2019-05-18T05:41:04.627Z,9.62
2019-05-18T05:43:33.313Z,9.69
2019-05-18T05:46:00.302Z,9.78
2019-05-18T05:48:27.241Z,9.88
2019-05-18T05:50:54.219Z,10.04
2019-05-18T05:53:21.194Z,10.17
2019-05-18T05:55:48.138Z,10.31
2019-05-18T05:58:15.291Z,10.45
2019-05-18T06:00:42.237Z,10.57
2019-05-18T06:03:09.194Z,10.65
2019-05-18T06:05:36.163Z,10.69
2019-05-18T06:08:03.127Z,10.77
2019-05-18T06:10:30.086Z,10.89
2019-05-18T06:12:57.099Z,11.00
2019-05-18T06:15:24.020Z,11.09
2019-05-18T06:17:52.982Z,11.21
2019-05-18T06:20:20.125Z,11.32
2019-05-18T06:22:47.116Z,11.39
2019-05-18T06:25:14.047Z,11.50
2019-05-18T06:27:41.045Z,11.59
2019-05-18T06:30:08.424Z,11.64
2019-05-18T06:32:35.500Z,11.68
2019-05-18T06:35:04.437Z,11.74
2019-05-18T06:37:31.395Z,11.79
2019-05-18T06:39:58.344Z,11.83
2019-05-18T06:42:25.326Z,11.87
2019-05-18T06:45:03.825Z,11.95
2019-05-18T06:47:30.815Z,12.07
2019-05-18T06:49:57.816Z,12.09
2019-05-18T06:52:28.869Z,12.18
2019-05-18T06:54:57.427Z,12.28
2019-05-18T06:57:26.681Z,12.28
2019-05-18T06:59:53.740Z,12.27
2019-05-18T07:02:20.698Z,12.38
2019-05-18T07:04:47.681Z,12.48
2019-05-18T07:07:14.666Z,12.58
2019-05-18T07:09:41.613Z,12.64
2019-05-18T07:12:08.611Z,12.64
2019-05-18T07:14:36.905Z,12.68
2019-05-18T07:17:03.858Z,12.75
2019-05-18T07:19:30.979Z,12.80
2019-05-18T07:21:57.963Z,12.84
2019-05-18T07:24:24.952Z,12.86
2019-05-18T07:26:51.951Z,12.92
2019-05-18T07:29:18.892Z,12.96
2019-05-18T07:31:45.987Z,12.95
2019-05-18T07:34:12.968Z,12.96
2019-05-18T07:36:39.895Z,12.93
2019-05-18T07:39:09.749Z,12.91
2019-05-18T07:41:46.166Z,12.90
2019-05-18T07:44:06.948Z,12.83
2019-05-18T07:46:33.881Z,12.78
2019-05-18T07:49:01.039Z,12.80
2019-05-18T07:51:36.682Z,12.83
2019-05-18T07:53:56.995Z,12.82
2019-05-18T07:56:24.258Z,12.85
2019-05-18T07:58:51.287Z,12.88
2019-05-18T08:01:18.250Z,12.93
2019-05-18T08:03:45.275Z,12.97
2019-05-18T08:06:12.249Z,13.02
2019-05-18T08:08:39.204Z,13.08
2019-05-18T08:11:10.682Z,13.17
2019-05-18T08:13:37.596Z,13.33
2019-05-18T08:16:06.358Z,13.53
2019-05-18T08:18:33.398Z,13.63
2019-05-18T08:21:01.474Z,13.73
2019-05-18T08:23:47.201Z,13.86
2019-05-18T08:26:14.190Z,13.91
2019-05-18T08:28:41.129Z,13.92
2019-05-18T08:31:08.158Z,14.00
2019-05-18T08:33:35.131Z,14.09
2019-05-18T08:36:02.123Z,14.16
2019-05-18T08:38:29.247Z,14.08
2019-05-18T08:40:56.334Z,14.14
2019-05-18T08:43:23.303Z,14.32
2019-05-18T08:45:50.302Z,14.43
2019-05-18T08:48:17.257Z,14.45
2019-05-18T08:50:44.212Z,14.55
2019-05-18T08:53:11.208Z,14.60
2019-05-18T08:55:38.316Z,14.64
2019-05-18T08:58:05.306Z,14.73
2019-05-18T09:00:32.244Z,14.67
2019-05-18T09:02:59.274Z,14.87
2019-05-18T09:05:26.220Z,14.92
2019-05-18T09:07:53.189Z,14.90
2019-05-18T09:10:20.294Z,15.00
2019-05-18T09:12:47.258Z,15.13
2019-05-18T09:15:15.232Z,15.22
2019-05-18T09:17:42.300Z,15.29
2019-05-18T09:20:09.729Z,15.34
2019-05-18T09:22:36.809Z,15.36
2019-05-18T09:25:04.215Z,15.40
2019-05-18T09:27:31.152Z,15.52
2019-05-18T09:29:58.322Z,15.59
2019-05-18T09:32:25.329Z,15.67
2019-05-18T09:34:52.286Z,15.76
2019-05-18T09:37:31.440Z,15.91
2019-05-18T09:39:58.434Z,15.96
2019-05-18T09:42:25.520Z,16.00
2019-05-18T09:44:52.559Z,16.11
2019-05-18T09:47:19.524Z,16.23
2019-05-18T09:49:46.477Z,16.27
2019-05-18T09:52:13.480Z,16.36
2019-05-18T09:54:40.491Z,16.37
2019-05-18T09:57:19.889Z,16.51
2019-05-18T09:59:46.890Z,16.48
2019-05-18T10:02:13.897Z,16.63
2019-05-18T10:04:41.000Z,16.76
2019-05-18T10:07:07.989Z,16.82
2019-05-18T10:09:39.180Z,16.93
2019-05-18T10:12:03.862Z,17.12
2019-05-18T10:14:30.841Z,17.36
2019-05-18T10:16:57.941Z,17.51
2019-05-18T10:19:24.963Z,17.71
2019-05-18T10:21:51.904Z,17.93
2019-05-18T10:24:37.546Z,18.04
2019-05-18T10:27:04.580Z,18.20
2019-05-18T10:29:31.543Z,18.12
2019-05-18T10:31:58.536Z,18.20
2019-05-18T10:34:25.489Z,18.37
2019-05-18T10:36:52.508Z,18.57
2019-05-18T10:39:19.533Z,18.70
2019-05-18T10:41:46.496Z,18.86
2019-05-18T10:44:13.451Z,19.13
2019-05-18T10:46:40.477Z,19.35
2019-05-18T10:49:07.416Z,19.58
2019-05-18T10:51:36.186Z,19.78
2019-05-18T10:54:03.272Z,19.89
2019-05-18T10:56:31.298Z,20.03
2019-05-18T10:58:58.480Z,20.26
2019-05-18T11:01:25.820Z,20.39
2019-05-18T11:03:52.797Z,20.44
2019-05-18T11:06:19.763Z,20.57
2019-05-18T11:08:46.765Z,20.43
2019-05-18T11:11:13.819Z,20.28
2019-05-18T11:13:40.774Z,20.38
2019-05-18T11:16:07.773Z,20.24
2019-05-18T11:18:34.718Z,20.08
2019-05-18T11:21:01.696Z,20.17
2019-05-18T11:23:42.786Z,20.11
2019-05-18T11:25:58.940Z,20.53
2019-05-18T11:28:25.873Z,21.18
2019-05-18T11:30:53.068Z,21.76
2019-05-18T11:33:20.024Z,22.13
2019-05-18T11:35:50.978Z,22.01
2019-05-18T11:38:18.093Z,21.99
2019-05-18T11:40:45.080Z,22.17
2019-05-18T11:43:12.091Z,22.20
2019-05-18T11:45:39.091Z,21.90
2019-05-18T11:48:06.103Z,21.87
2019-05-18T11:50:33.084Z,22.46
2019-05-18T11:53:00.063Z,22.79
2019-05-18T11:55:27.092Z,22.91
2019-05-18T11:57:54.030Z,22.84
2019-05-18T12:00:21.668Z,22.67
2019-05-18T12:02:48.667Z,22.51
2019-05-18T12:05:16.058Z,22.24
2019-05-18T12:07:43.064Z,22.03
2019-05-18T12:10:10.681Z,22.15
2019-05-18T12:12:39.141Z,22.15
2019-05-18T12:15:06.922Z,21.95
2019-05-18T12:17:33.965Z,21.92
2019-05-18T12:20:00.919Z,21.83
2019-05-18T12:22:27.890Z,22.34
2019-05-18T12:24:58.436Z,23.12
2019-05-18T12:27:25.419Z,23.37
2019-05-18T12:29:52.401Z,23.89
2019-05-18T12:32:19.391Z,24.04
2019-05-18T12:34:46.438Z,23.65
2019-05-18T12:37:21.696Z,23.15
2019-05-18T12:40:28.510Z,22.88
2019-05-18T12:42:55.493Z,22.56
2019-05-18T12:45:23.116Z,22.30
2019-05-18T12:47:50.200Z,22.13
2019-05-18T12:50:19.467Z,21.96
2019-05-18T12:52:46.426Z,21.83
2019-05-18T12:55:15.535Z,21.74
2019-05-18T12:57:42.583Z,21.52
2019-05-18T13:00:10.084Z,21.46
2019-05-18T13:02:37.391Z,21.61
2019-05-18T13:05:06.430Z,22.07
2019-05-18T13:07:33.499Z,23.41
2019-05-18T13:10:00.505Z,24.01
2019-05-18T13:12:27.640Z,23.65
2019-05-18T13:14:54.728Z,23.43
2019-05-18T13:17:21.724Z,23.29
2019-05-18T13:19:48.804Z,23.05
2019-05-18T13:22:36.032Z,23.33
2019-05-18T13:25:03.366Z,24.21
2019-05-18T13:27:38.722Z,24.98
2019-05-18T13:30:12.363Z,25.40
2019-05-18T13:32:39.357Z,25.74
2019-05-18T13:35:06.531Z,26.14
2019-05-18T13:37:33.539Z,26.51
2019-05-18T13:40:00.522Z,26.37
2019-05-18T13:42:27.490Z,26.39
2019-05-18T13:44:54.563Z,26.40
2019-05-18T13:47:21.512Z,26.12
2019-05-18T13:49:48.507Z,25.62
2019-05-18T13:52:15.431Z,25.49
2019-05-18T13:54:42.388Z,25.93
2019-05-18T13:57:09.345Z,26.21
2019-05-18T13:59:36.365Z,26.41
2019-05-18T14:02:03.504Z,26.46
2019-05-18T14:04:30.570Z,26.55
2019-05-18T14:06:57.578Z,26.45
2019-05-18T14:09:24.534Z,26.11
2019-05-18T14:11:51.610Z,25.42
2019-05-18T14:14:18.828Z,25.13
2019-05-18T14:16:45.832Z,24.86
2019-05-18T14:19:12.809Z,24.55
2019-05-18T14:21:41.833Z,24.09
2019-05-18T14:24:08.847Z,23.70
2019-05-18T14:26:35.809Z,23.56
2019-05-18T14:29:02.854Z,23.42
2019-05-18T14:31:29.817Z,23.72
2019-05-18T14:33:56.770Z,24.23
2019-05-18T14:36:23.751Z,24.77
2019-05-18T14:38:50.742Z,24.83
2019-05-18T14:41:17.704Z,24.38
2019-05-18T14:43:44.747Z,24.61
2019-05-18T14:46:11.710Z,24.84
2019-05-18T14:48:38.684Z,24.52
2019-05-18T14:51:11.804Z,24.31
2019-05-18T14:53:39.889Z,24.03
2019-05-18T14:56:06.960Z,23.82
2019-05-18T14:58:33.985Z,23.65
2019-05-18T15:01:01.003Z,23.52
2019-05-18T15:03:28.071Z,23.39
2019-05-18T15:05:55.120Z,23.17
2019-05-18T15:08:22.065Z,22.92
2019-05-18T15:10:49.073Z,22.86
2019-05-18T15:13:43.623Z,22.80
2019-05-18T15:16:10.598Z,22.81
2019-05-18T15:18:45.683Z,22.73
2019-05-18T15:21:12.624Z,22.64
2019-05-18T15:23:39.581Z,22.54
2019-05-18T15:26:06.701Z,22.46
2019-05-18T15:28:33.666Z,22.28
2019-05-18T15:31:00.771Z,22.13
2019-05-18T15:33:27.764Z,22.03
2019-05-18T15:35:54.735Z,22.01
2019-05-18T15:38:21.729Z,21.98
2019-05-18T15:40:50.957Z,21.89
2019-05-18T15:43:18.028Z,21.83
2019-05-18T15:45:45.095Z,21.87
2019-05-18T15:48:12.123Z,21.96
2019-05-18T15:50:39.386Z,22.01
2019-05-18T15:53:06.339Z,22.03
2019-05-18T15:55:33.333Z,22.02
2019-05-18T15:58:00.315Z,22.12
2019-05-18T16:00:27.312Z,22.29
2019-05-18T16:02:54.330Z,22.39
2019-05-18T16:05:21.453Z,22.45
2019-05-18T16:07:48.460Z,22.74
2019-05-18T16:10:16.248Z,22.95
2019-05-18T16:12:43.368Z,22.88
2019-05-18T16:15:14.244Z,22.85
2019-05-18T16:17:41.332Z,22.96
2019-05-18T16:20:08.935Z,22.92
2019-05-18T16:22:35.975Z,22.87
2019-05-18T16:25:03.800Z,22.78
2019-05-18T16:27:30.757Z,22.77
2019-05-18T16:29:57.851Z,22.68
2019-05-18T16:32:24.828Z,22.67
2019-05-18T16:34:51.788Z,22.75
2019-05-18T16:37:18.775Z,22.90
2019-05-18T16:39:45.822Z,23.11
2019-05-18T16:42:12.897Z,23.16
2019-05-18T16:44:39.862Z,23.17
2019-05-18T16:47:06.841Z,23.31
2019-05-18T16:49:39.907Z,23.45
2019-05-18T16:52:06.900Z,23.47
2019-05-18T16:54:33.876Z,23.30
2019-05-18T16:57:00.881Z,23.03
2019-05-18T16:59:27.842Z,22.78
2019-05-18T17:01:54.865Z,22.73
2019-05-18T17:04:21.840Z,22.78
2019-05-18T17:06:48.934Z,22.77
2019-05-18T17:09:15.996Z,22.67
2019-05-18T17:11:42.985Z,22.61
2019-05-18T17:14:09.940Z,22.54
2019-05-18T17:17:22.115Z,22.38
2019-05-18T17:19:49.077Z,22.27
2019-05-18T17:22:16.025Z,22.13
2019-05-18T17:24:43.040Z,22.04
2019-05-18T17:27:10.228Z,21.93
2019-05-18T17:29:37.277Z,21.78
2019-05-18T17:32:04.396Z,21.66
2019-05-18T17:34:31.371Z,21.52
2019-05-18T17:36:58.430Z,21.38
2019-05-18T17:39:25.551Z,21.27
2019-05-18T17:41:56.903Z,21.20
2019-05-18T17:44:23.954Z,21.16
2019-05-18T17:46:50.941Z,21.11
2019-05-18T17:49:26.321Z,21.01
2019-05-18T17:51:46.882Z,20.90
2019-05-18T17:54:13.946Z,20.78
2019-05-18T17:56:46.946Z,20.63
2019-05-18T17:59:13.929Z,20.50
2019-05-18T18:01:40.967Z,20.28
2019-05-18T18:04:07.963Z,20.20
2019-05-18T18:06:34.933Z,20.06
2019-05-18T18:09:05.661Z,19.93
2019-05-18T18:11:32.618Z,19.81
2019-05-18T18:13:59.643Z,19.67
2019-05-18T18:16:26.599Z,19.55
2019-05-18T18:18:53.683Z,19.43
2019-05-18T18:21:20.671Z,19.33
2019-05-18T18:23:54.022Z,19.26
2019-05-18T18:26:16.960Z,19.21
2019-05-18T18:28:43.921Z,19.11
2019-05-18T18:31:18.050Z,19.03
2019-05-18T18:33:45.083Z,18.96
2019-05-18T18:36:12.443Z,18.92
2019-05-18T18:38:39.411Z,18.84
2019-05-18T18:41:06.446Z,18.76
2019-05-18T18:43:33.426Z,18.68
2019-05-18T18:46:06.612Z,18.57
2019-05-18T18:48:33.661Z,18.48
2019-05-18T18:51:00.670Z,18.40
2019-05-18T18:53:27.627Z,18.30
2019-05-18T18:55:54.673Z,18.20
2019-05-18T18:58:44.662Z,18.09
2019-05-18T19:01:11.673Z,18.01
2019-05-18T19:03:38.706Z,17.90
2019-05-18T19:06:05.745Z,17.81
2019-05-18T19:08:32.771Z,17.68
2019-05-18T19:11:04.375Z,17.54
2019-05-18T19:13:31.354Z,17.46
2019-05-18T19:15:58.354Z,17.41
2019-05-18T19:18:25.308Z,17.40
2019-05-18T19:20:52.260Z,17.38
2019-05-18T19:23:19.260Z,17.32
2019-05-18T19:25:46.356Z,17.29
2019-05-18T19:28:13.314Z,17.23
2019-05-18T19:30:40.301Z,17.17
2019-05-18T19:33:07.257Z,17.11
2019-05-18T19:35:34.227Z,17.03
2019-05-18T19:38:01.237Z,16.96
2019-05-18T19:40:28.198Z,16.83
2019-05-18T19:42:56.276Z,16.70
2019-05-18T19:45:23.329Z,16.64
2019-05-18T19:47:50.298Z,16.59
2019-05-18T19:50:17.590Z,16.56
2019-05-18T19:52:44.705Z,16.51
2019-05-18T19:55:48.158Z,16.45
2019-05-18T19:58:15.313Z,16.36
2019-05-18T20:00:44.371Z,16.23
2019-05-18T20:03:11.400Z,16.15
2019-05-18T20:05:39.396Z,16.07
2019-05-18T20:08:06.395Z,16.00
2019-05-18T20:10:51.632Z,15.92
2019-05-18T20:13:18.855Z,15.88
2019-05-18T20:15:46.098Z,15.83
2019-05-18T20:18:13.098Z,15.79
2019-05-18T20:20:40.076Z,15.70
2019-05-18T20:23:08.456Z,15.62
2019-05-18T20:26:21.861Z,15.54
2019-05-18T20:28:48.865Z,15.48
2019-05-18T20:31:15.872Z,15.28
2019-05-18T20:33:42.899Z,15.24
2019-05-18T20:36:09.883Z,15.21
2019-05-18T20:38:36.972Z,15.13
2019-05-18T20:41:04.248Z,15.07
2019-05-18T20:43:33.895Z,14.99
2019-05-18T20:46:00.887Z,14.89
2019-05-18T20:48:27.907Z,14.78
2019-05-18T20:51:02.259Z,14.67
2019-05-18T20:53:29.241Z,14.64
2019-05-18T20:55:56.301Z,14.51
2019-05-18T20:58:37.118Z,14.40
2019-05-18T21:00:52.225Z,14.30
2019-05-18T21:03:19.218Z,14.17
2019-05-18T21:05:46.207Z,14.07
2019-05-18T21:08:13.206Z,14.00
2019-05-18T21:10:40.209Z,13.92
2019-05-18T21:13:11.335Z,13.84
2019-05-18T21:15:38.415Z,13.76
2019-05-18T21:18:05.576Z,13.69
2019-05-18T21:20:32.540Z,13.65
2019-05-18T21:22:59.506Z,13.59
2019-05-18T21:25:26.512Z,13.42
2019-05-18T21:27:53.474Z,13.30
2019-05-18T21:30:45.169Z,13.22
2019-05-18T21:33:12.359Z,13.19
2019-05-18T21:35:39.325Z,13.13
2019-05-18T21:38:06.410Z,13.15
2019-05-18T21:40:33.417Z,13.13
2019-05-18T21:43:06.459Z,13.08
2019-05-18T21:45:33.463Z,13.09
2019-05-18T21:48:01.605Z,13.08
2019-05-18T21:50:28.553Z,13.10
2019-05-18T21:52:55.525Z,13.17
2019-05-18T21:55:22.510Z,13.25
2019-05-18T21:57:49.479Z,13.29
2019-05-18T22:00:16.638Z,13.34
2019-05-18T22:02:43.647Z,13.39
2019-05-18T22:05:12.970Z,13.47
2019-05-18T22:07:39.941Z,13.51
2019-05-18T22:10:07.166Z,13.56
2019-05-18T22:12:34.181Z,13.57
2019-05-18T22:15:01.289Z,13.59
2019-05-18T22:17:28.272Z,13.59
2019-05-18T22:19:55.235Z,13.59
2019-05-18T22:22:23.317Z,13.61
2019-05-18T22:24:50.334Z,13.64
2019-05-18T22:27:17.330Z,13.69
2019-05-18T22:29:44.283Z,13.73
2019-05-18T22:32:11.302Z,13.77
2019-05-18T22:34:38.277Z,13.80
2019-05-18T22:37:05.277Z,13.79
2019-05-18T22:39:32.248Z,13.82
2019-05-18T22:42:01.016Z,13.84
2019-05-18T22:44:27.961Z,13.84
2019-05-18T22:46:54.955Z,13.87
2019-05-18T22:49:21.946Z,13.90
2019-05-18T22:51:48.899Z,13.91
2019-05-18T22:54:15.903Z,13.89
2019-05-18T22:56:42.881Z,13.88
2019-05-18T22:59:09.954Z,13.87
2019-05-18T23:01:38.761Z,13.82
2019-05-18T23:04:05.750Z,13.80
2019-05-18T23:06:32.813Z,13.81
2019-05-18T23:08:59.828Z,13.82
2019-05-18T23:11:26.955Z,13.79
2019-05-18T23:13:54.027Z,13.81
2019-05-18T23:16:21.027Z,13.82
2019-05-18T23:18:56.769Z,13.82
2019-05-18T23:21:19.949Z,13.86
2019-05-18T23:23:47.168Z,13.88
2019-05-18T23:26:14.136Z,13.91
2019-05-18T23:28:42.236Z,13.94
2019-05-18T23:31:09.235Z,13.98
2019-05-18T23:33:36.193Z,13.99
2019-05-18T23:36:03.226Z,13.99
2019-05-18T23:38:30.517Z,13.99
2019-05-18T23:40:57.491Z,14.03
2019-05-18T23:43:24.446Z,14.02
2019-05-18T23:45:51.606Z,14.03
2019-05-18T23:48:18.642Z,14.03
2019-05-18T23:50:45.614Z,14.02
2019-05-18T23:53:12.705Z,14.02
2019-05-18T23:55:39.639Z,14.01
2019-05-18T23:58:06.721Z,14.00
